Ada, West Virginia
Current Conditions -  °F | °C
As of 4:52 PM on Monday 22 Dec 2014 (Local Time) from KBLF Reporting Station
Overcast Overcast  
Wind Chill:   Ceiling: 600
Heat Index:   Visibility: 10mi
Dew Point:   Wind: 10mph
Humidity: 82%   Direction: 80°E
Pressure: 29.96"   Gusts: 17mph
Location:  37.2994°N, 81.226°W
Report Text: KBLF 222152Z AUTO 08009G15KT 050V120 10SM OVC006 04/01 A2996 RMK AO2 SLP151 T00390011
Loading
Personal Weather Stations






























Interactive Weather Map New forecast layout! Learn more

10-Day Weather Forecast

Advertisements
Track Severe Weather on mobile